EGBB/BHX METAR and TAF weather

Enter ICAO airport designator
Station Type Date Time Source
EGBB METAR 2020/07/06 22:20 UTC NOAA

EGBB 062220Z VRB03KT CAVOK 13/07 Q1023


Station Type Date Time Source
EGBB Decoded METAR 2020/07/06 22:20 UTC NOAA

Birmingham / Airport, United Kingdom (EGBB) 52-27N 001-44W 0M
Jul 06, 2020 - 06:20 PM EDT / 2020.07.06 2220 UTC
Wind: Variable at 3 MPH (3 KT):0
Visibility: greater than 7 mile(s):0
Temperature: 55 F (13 C)
Dew Point: 44 F (7 C)
Relative Humidity: 66%
Pressure (altimeter): 30.21 in. Hg (1023 hPa)
ob: EGBB 062220Z VRB03KT CAVOK 13/07 Q1023
cycle: 22

Station Type Date Time Source
EGBB TAF 2020/07/06 22:36 UTC NOAA

TAF
AMD EGBB 062229Z 0622/0718 25005KT 9999 SCT040
TEMPO 0712/0718 8000 -RA PROB30
TEMPO 0715/0718 RA BKN010

Example: see airport list